Time;durP1;ratioP1;P1;durP2;ratioP2;P2;SDS_P1;SDS_P2;PMS_P1;PMS_P2;Temp;Humidity;BMP_temperature;BMP_pressure;BME280_temperature;BME280_humidity;BME280_pressure;Samples;Min_cycle;Max_cycle;Signal;HPM_P1;HPM_P2
2023/04/26 00:04:57;;;;;;;5.40;3.97;;;10.60;97.40;;;9.17;71.93;99392.53;10397899;28;98225;-82
2023/04/26 00:10:00;;;;;;;5.57;3.20;;;10.60;97.50;;;9.14;72.34;99403.50;10399226;28;98045;-83
2023/04/26 00:15:06;;;;;;;5.00;3.60;;;10.50;97.80;;;9.12;72.34;99400.22;10397783;28;98053;-84
2023/04/26 00:20:11;;;;;;;5.53;3.20;;;10.50;97.80;;;9.10;72.52;99407.50;10398227;28;96613;-83
2023/04/26 00:25:14;;;;;;;5.67;2.80;;;10.50;97.80;;;9.07;71.78;99413.19;10394791;28;98929;-82
2023/04/26 00:30:18;;;;;;;3.57;2.63;;;10.50;97.60;;;9.02;71.38;99408.41;10395510;28;96512;-83
2023/04/26 00:35:21;;;;;;;5.20;3.53;;;10.40;97.50;;;8.97;71.68;99420.53;10399150;28;96490;-84
2023/04/26 00:40:24;;;;;;;5.23;3.27;;;10.30;97.50;;;8.89;71.96;99433.84;10398267;28;96492;-82
2023/04/26 00:45:27;;;;;;;4.37;3.10;;;10.30;97.70;;;8.77;72.11;99442.19;10393975;28;96590;-82
2023/04/26 00:50:31;;;;;;;5.13;3.40;;;10.20;97.80;;;8.68;72.37;99445.88;10395582;28;97307;-86
2023/04/26 00:55:35;;;;;;;4.47;3.40;;;10.10;97.80;;;8.57;72.52;99448.91;10382561;28;96557;-83
2023/04/26 01:00:39;;;;;;;4.20;3.00;;;10.00;98.00;;;8.45;72.78;99451.09;10374485;28;96724;-82
2023/04/26 01:05:43;;;;;;;6.97;3.60;;;9.90;98.00;;;8.39;72.64;99450.97;10395355;28;96795;-83
2023/04/26 01:10:47;;;;;;;4.80;3.30;;;9.80;98.00;;;8.33;72.53;99453.28;10396965;28;96661;-84
2023/04/26 01:15:50;;;;;;;3.93;3.20;;;9.70;98.00;;;8.29;72.36;99459.94;10379099;28;96547;-82
2023/04/26 01:20:55;;;;;;;6.27;3.53;;;9.70;97.90;;;8.25;72.43;99469.19;10397169;28;96456;-83
2023/04/26 01:25:58;;;;;;;5.60;4.07;;;9.60;97.90;;;8.19;72.50;99469.06;10381627;28;96620;-85
2023/04/26 01:31:01;;;;;;;6.10;3.60;;;9.60;97.90;;;8.14;72.42;99472.19;10374976;28;97826;-83
2023/04/26 01:36:09;;;;;;;7.20;3.50;;;9.60;97.90;;;8.09;71.98;99471.88;10396152;28;96721;-83
2023/04/26 01:41:12;;;;;;;6.00;3.23;;;9.50;97.70;;;8.04;72.13;99480.34;10380575;28;96655;-83
2023/04/26 01:46:15;;;;;;;5.00;2.97;;;9.50;97.70;;;8.02;71.91;99487.63;10403027;28;96742;-81
2023/04/26 01:51:18;;;;;;;5.07;2.90;;;9.40;97.60;;;8.01;71.53;99493.91;10400545;28;96519;-83
2023/04/26 01:56:23;;;;;;;4.03;2.97;;;9.40;97.40;;;8.00;71.27;99496.72;10366688;28;96967;-83
2023/04/26 02:01:26;;;;;;;4.90;3.07;;;9.40;97.30;;;7.97;71.21;99494.41;10383632;28;96663;-83
2023/04/26 02:06:31;;;;;;;4.57;3.00;;;9.40;97.10;;;7.94;71.07;99497.41;10385363;28;96740;-82
2023/04/26 02:11:34;;;;;;;5.93;2.53;;;9.30;97.10;;;7.90;70.96;99511.94;10400913;28;97493;-84
2023/04/26 02:16:39;;;;;;;3.97;2.73;;;9.30;97.10;;;7.87;71.04;99522.88;10385384;28;97368;-84
2023/04/26 02:21:57;;;;;;;4.03;2.80;;;9.30;97.10;;;7.82;71.20;99509.31;10403787;28;96419;-83
2023/04/26 02:27:02;;;;;;;4.97;3.00;;;9.30;97.10;;;7.75;71.35;99512.63;10383655;28;96730;-84
2023/04/26 02:32:06;;;;;;;6.63;2.43;;;9.20;97.20;;;7.71;71.41;99518.41;10415164;28;96657;-84
2023/04/26 02:37:10;;;;;;;4.67;3.23;;;9.10;97.20;;;7.67;71.35;99517.06;10418267;28;97433;-83
2023/04/26 02:42:13;;;;;;;4.27;2.93;;;9.10;97.20;;;7.64;71.51;99517.44;10369057;28;97285;-84
2023/04/26 02:47:17;;;;;;;3.93;2.60;;;9.10;97.30;;;7.58;71.84;99526.03;10401572;28;96622;-83
2023/04/26 02:52:20;;;;;;;5.23;3.10;;;9.00;97.50;;;7.47;72.06;99516.59;10384899;28;97174;-83
2023/04/26 02:57:23;;;;;;;4.03;2.50;;;9.00;97.40;;;7.42;72.06;99526.81;10400210;28;97657;-82
2023/04/26 03:02:26;;;;;;;5.77;2.80;;;8.90;97.40;;;7.38;71.81;99526.34;10414479;27;97400;-84
2023/04/26 03:07:30;;;;;;;3.93;2.10;;;8.80;97.40;;;7.32;71.85;99523.53;10368445;28;96523;-83
2023/04/26 03:12:33;;;;;;;2.93;1.97;;;8.70;97.30;;;7.30;71.43;99534.25;10417770;28;96906;-84
2023/04/26 03:17:37;;;;;;;4.60;2.40;;;8.70;97.10;;;7.24;71.33;99535.72;10389326;28;97455;-82
2023/04/26 03:22:40;;;;;;;6.87;3.10;;;8.70;97.10;;;7.20;71.07;99544.97;10382332;28;96812;-83
2023/04/26 03:27:43;;;;;;;5.53;2.40;;;8.60;97.00;;;7.15;71.10;99557.84;10384318;28;98518;-84
2023/04/26 03:32:46;;;;;;;8.13;2.50;;;8.60;97.00;;;7.12;71.10;99570.53;10397111;28;96901;-82
2023/04/26 03:37:49;;;;;;;5.43;2.60;;;8.60;97.00;;;7.10;70.99;99572.53;10373036;28;96572;-83
2023/04/26 03:42:55;;;;;;;4.57;2.10;;;8.50;96.90;;;7.07;71.19;99580.75;10371306;28;97472;-83
2023/04/26 03:47:58;;;;;;;5.80;2.47;;;8.50;96.90;;;7.03;71.19;99590.00;10332552;28;96710;-83
2023/04/26 03:53:01;;;;;;;5.50;2.80;;;8.50;96.90;;;6.94;71.48;99589.97;10307512;28;96645;-83
2023/04/26 03:58:06;;;;;;;4.80;2.17;;;8.40;97.00;;;6.91;71.65;99602.69;10363517;28;97133;-90
2023/04/26 04:03:10;;;;;;;6.90;2.30;;;8.40;97.10;;;6.87;71.53;99610.06;10352042;28;97728;-91
2023/04/26 04:08:13;;;;;;;5.17;2.33;;;8.30;97.10;;;6.85;71.82;99609.41;10339047;28;99396;-89
2023/04/26 04:13:16;;;;;;;6.57;3.00;;;8.30;97.10;;;6.85;71.91;99605.94;10350763;28;96589;-86
2023/04/26 04:18:19;;;;;;;3.93;2.10;;;8.30;97.20;;;6.87;71.74;99596.03;10331908;28;96637;-87
2023/04/26 04:23:22;;;;;;;4.53;2.20;;;8.30;97.20;;;6.90;72.08;99616.88;10353147;28;96759;-89
2023/04/26 04:28:25;;;;;;;4.23;1.83;;;8.40;97.30;;;6.92;72.33;99628.09;10373849;28;97573;-91
2023/04/26 04:33:28;;;;;;;7.53;2.30;;;8.40;97.50;;;6.93;71.79;99632.38;10346681;28;97284;-88
2023/04/26 04:38:32;;;;;;;8.13;2.17;;;8.40;97.30;;;7.02;71.22;99635.88;10347409;28;97445;-88
2023/04/26 04:43:35;;;;;;;4.27;2.07;;;8.40;97.10;;;7.10;70.92;99643.88;10314075;28;98389;-89
2023/04/26 04:48:38;;;;;;;5.10;2.00;;;8.50;96.90;;;7.20;70.36;99650.69;10316909;28;98025;-91
2023/04/26 04:53:41;;;;;;;5.67;2.90;;;8.60;96.70;;;7.25;71.45;99664.22;10328736;28;97287;-89
2023/04/26 04:58:45;;;;;;;5.60;3.63;;;8.70;97.10;;;7.19;73.10;99664.84;10332004;28;97246;-92
2023/04/26 05:03:48;;;;;;;5.43;3.57;;;8.60;97.70;;;7.16;73.48;99670.47;10351610;28;96811;-90
2023/04/26 05:08:51;;;;;;;5.10;2.50;;;8.60;98.30;;;7.22;71.49;99676.94;10374873;28;96412;-89
2023/04/26 05:13:54;;;;;;;4.43;2.47;;;8.60;97.20;;;7.34;69.14;99686.25;10329687;28;96664;-90
2023/04/26 05:18:58;;;;;;;8.43;2.70;;;8.70;96.10;;;7.46;67.49;99686.78;10325324;28;96608;-90
2023/04/26 05:24:01;;;;;;;6.57;2.27;;;8.80;95.40;;;7.60;67.03;99699.38;10325403;28;97188;-86
2023/04/26 05:29:04;;;;;;;5.80;1.97;;;9.00;95.20;;;7.74;65.61;99695.28;10361515;27;96765;-90
2023/04/26 05:34:07;;;;;;;5.47;2.33;;;9.10;94.20;;;7.89;65.12;99695.47;10302742;28;96601;-82
2023/04/26 05:39:11;;;;;;;7.37;2.57;;;9.20;94.10;;;8.03;65.23;99694.81;10426089;27;97242;-85
2023/04/26 05:44:14;;;;;;;5.20;2.17;;;9.40;94.10;;;8.17;63.01;99712.72;10394374;28;98133;-90
2023/04/26 05:49:17;;;;;;;9.90;2.30;;;9.60;92.90;;;8.21;60.25;99703.44;10385251;28;96465;-84
2023/04/26 05:54:21;;;;;;;9.60;2.50;;;9.60;91.10;;;8.21;59.54;99702.63;10377601;28;96550;-85
2023/04/26 05:59:24;;;;;;;5.77;2.30;;;9.60;90.30;;;8.25;59.80;99709.25;10385643;28;97232;-89
2023/04/26 06:04:27;;;;;;;8.40;2.50;;;9.60;90.40;;;8.34;57.50;99708.28;10377540;28;97918;-88
2023/04/26 06:09:31;;;;;;;4.90;2.23;;;9.70;88.50;;;8.46;57.96;99717.56;10411532;28;96543;-94
2023/04/26 06:14:34;;;;;;;6.73;2.07;;;9.80;88.70;;;8.60;56.80;99729.31;10408497;28;98355;-87
2023/04/26 06:19:37;;;;;;;5.93;1.80;;;10.00;87.10;;;8.68;55.67;99737.22;10390801;28;96702;-85
2023/04/26 06:24:40;;;;;;;5.90;2.10;;;10.10;85.90;;;8.78;54.57;99737.91;10411706;27;97498;-87
2023/04/26 06:29:44;;;;;;;6.60;2.07;;;10.10;84.00;;;8.95;55.75;99741.34;10400220;27;96950;-89
2023/04/26 06:34:46;;;;;;;5.50;1.63;;;10.30;85.10;;;9.09;54.04;99737.19;10401827;28;96712;-90
2023/04/26 06:39:50;;;;;;;5.53;1.80;;;10.40;82.60;;;9.17;53.82;99741.63;10421237;28;98204;-86
2023/04/26 06:44:53;;;;;;;8.10;1.97;;;10.50;82.20;;;9.33;53.45;99744.22;10412212;28;96491;-89
2023/04/26 06:49:56;;;;;;;5.47;2.00;;;10.70;81.80;;;9.52;53.10;99735.03;10392399;28;98248;-91
2023/04/26 06:55:03;;;;;;;5.00;2.03;;;10.80;80.80;;;9.68;49.80;99729.69;10388971;28;96527;-83
2023/04/26 07:00:08;;;;;;;7.73;2.60;;;11.00;77.30;;;9.69;48.40;99719.88;10384915;27;96860;-87
2023/04/26 07:05:11;;;;;;;5.87;1.70;;;11.00;73.40;;;9.67;49.42;99729.84;10403689;28;96835;-84
2023/04/26 07:10:14;;;;;;;6.03;2.10;;;11.00;74.50;;;9.69;47.50;99739.28;10398602;28;96847;-84
2023/04/26 07:15:17;;;;;;;4.00;1.67;;;11.00;72.00;;;9.83;47.86;99743.00;10383871;28;96629;-84
2023/04/26 07:20:21;;;;;;;3.70;1.50;;;11.10;72.70;;;10.34;47.11;99749.53;10384996;28;97175;-83
2023/04/26 07:25:24;;;;;;;4.37;1.50;;;11.30;72.70;;;10.48;46.25;99755.91;10405159;28;96682;-82
2023/04/26 07:30:27;;;;;;;5.50;1.50;;;11.50;70.70;;;10.48;45.31;99761.22;10382349;28;96699;-83
2023/04/26 07:35:33;;;;;;;3.63;1.50;;;11.60;69.30;;;10.44;46.30;99760.75;10382578;28;96695;-84
2023/04/26 07:40:36;;;;;;;13.60;4.13;;;11.70;70.10;;;10.55;46.81;99770.13;10379416;28;96910;-82
2023/04/26 07:45:39;;;;;;;6.23;2.37;;;11.80;70.20;;;10.60;45.34;99769.59;10399034;28;96580;-83
2023/04/26 07:50:42;;;;;;;6.43;2.37;;;11.80;68.10;;;10.65;45.43;99769.88;10400160;28;96608;-85
2023/04/26 07:55:45;;;;;;;3.90;1.87;;;11.90;69.00;;;10.69;45.31;99772.03;10396366;28;96574;-84
2023/04/26 08:00:48;;;;;;;3.20;1.70;;;12.00;67.80;;;10.78;45.32;99788.72;10391749;28;96729;-82
2023/04/26 08:05:52;;;;;;;3.83;1.53;;;12.10;68.20;;;11.10;45.53;99794.75;10380546;28;96669;-86
2023/04/26 08:10:55;;;;;;;5.07;1.53;;;12.30;68.50;;;11.22;44.12;99788.81;10392856;28;97982;-89
2023/04/26 08:15:58;;;;;;;3.63;1.67;;;12.50;66.40;;;11.20;42.75;99792.66;10398461;28;96892;-86
2023/04/26 08:21:02;;;;;;;6.40;2.00;;;12.50;64.80;;;11.02;43.47;99811.59;10414836;28;96626;-82
2023/04/26 08:26:06;;;;;;;5.87;1.77;;;12.30;64.60;;;11.14;42.71;99814.66;10405579;27;97025;-86
2023/04/26 08:31:08;;;;;;;2.93;1.40;;;12.40;63.70;;;11.23;42.43;99813.56;10419966;27;98003;-85
2023/04/26 08:36:12;;;;;;;4.30;1.53;;;12.50;63.20;;;11.40;41.97;99820.38;10398304;28;96636;-87
2023/04/26 08:41:22;;;;;;;4.73;1.67;;;12.70;62.80;;;11.63;42.20;99819.44;10359430;28;96635;-84
2023/04/26 08:46:28;;;;;;;6.43;2.00;;;12.90;62.80;;;11.89;41.24;99816.38;10411236;28;96601;-86
2023/04/26 08:51:33;;;;;;;3.37;1.50;;;13.30;61.40;;;12.19;39.45;99822.47;10391228;28;97063;-84
2023/04/26 08:56:38;;;;;;;4.77;1.40;;;13.50;59.00;;;12.31;40.31;99820.97;10376409;28;96736;-84
2023/04/26 09:01:43;;;;;;;4.85;1.48;;;13.50;60.20;;;12.52;37.88;99833.47;10373231;28;96769;-85
2023/04/26 09:06:48;;;;;;;4.25;1.75;;;13.60;57.10;;;12.69;37.95;99831.38;10382514;28;96706;-83
2023/04/26 09:11:58;;;;;;;6.27;1.40;;;13.60;57.50;;;12.83;37.90;99819.81;10382044;28;96633;-83
2023/04/26 09:17:02;;;;;;;5.63;1.60;;;13.80;57.90;;;13.07;38.15;99810.59;10377609;28;98339;-84
2023/04/26 09:22:05;;;;;;;3.60;1.33;;;14.10;57.80;;;13.24;37.40;99811.16;10386886;28;97511;-82
2023/04/26 09:27:08;;;;;;;5.30;1.50;;;14.30;56.80;;;13.42;37.01;99814.16;10397281;28;96516;-83
2023/04/26 09:32:11;;;;;;;3.60;1.38;;;14.60;56.60;;;13.38;36.18;99819.06;10379221;28;97419;-82
2023/04/26 09:37:15;;;;;;;3.60;1.35;;;14.60;55.00;;;13.25;35.75;99812.81;10374778;28;98276;-90
2023/04/26 09:42:18;;;;;;;5.65;1.52;;;14.60;54.80;;;13.40;36.63;99800.19;10413104;28;96671;-89
2023/04/26 09:47:21;;;;;;;2.33;1.25;;;14.70;55.60;;;13.82;37.20;99793.03;10385877;28;98388;-85
2023/04/26 09:52:27;;;;;;;2.88;0.98;;;15.00;56.20;;;13.58;34.77;99807.69;10397439;28;96729;-87
2023/04/26 09:57:30;;;;;;;4.05;1.38;;;14.90;52.80;;;13.31;35.40;99810.22;10381706;28;96452;-90
2023/04/26 10:02:34;;;;;;;4.18;1.45;;;14.60;53.60;;;13.11;35.67;99807.34;10400680;28;96471;-88
2023/04/26 10:07:40;;;;;;;4.85;1.13;;;14.40;53.70;;;13.18;35.50;99803.91;10386181;28;96562;-86
2023/04/26 10:12:43;;;;;;;5.13;1.20;;;14.50;53.50;;;13.53;35.74;99810.94;10387955;28;96586;-87
2023/04/26 10:17:46;;;;;;;5.28;1.20;;;14.70;53.00;;;13.43;34.48;99813.13;10371574;28;96411;-86
2023/04/26 10:23:00;;;;;;;3.72;1.02;;;14.80;51.70;;;13.09;34.76;99814.72;10403471;28;96750;-87
2023/04/26 10:28:04;;;;;;;4.65;1.40;;;14.50;51.80;;;13.05;34.57;99804.63;10406853;28;96437;-89
2023/04/26 10:33:07;;;;;;;3.00;0.98;;;14.40;51.80;;;13.33;35.12;99799.34;10402291;28;96543;-86
2023/04/26 10:38:10;;;;;;;1.98;0.85;;;14.50;52.60;;;13.31;34.14;99822.69;10386064;28;97214;-88
2023/04/26 10:43:13;;;;;;;2.92;1.08;;;14.60;51.00;;;13.28;33.79;99813.25;10421445;28;96870;-84
2023/04/26 10:48:27;;;;;;;3.22;1.23;;;14.60;50.60;;;13.53;33.44;99796.78;10402291;28;96447;-87
2023/04/26 10:53:53;;;;;;;2.97;0.98;;;14.80;50.60;;;13.52;33.23;99809.31;10387665;28;97604;-86
2023/04/26 10:59:18;;;;;;;2.75;0.93;;;14.80;50.00;;;13.64;32.46;99817.59;10400145;27;96777;-86
2023/04/26 11:04:51;;;;;;;2.50;0.90;;;14.90;48.90;;;13.47;31.79;99809.06;10402207;28;96508;-86
2023/04/26 11:09:55;;;;;;;4.80;1.00;;;14.80;48.10;;;13.32;31.99;99789.69;10402053;28;96440;-85
2023/04/26 11:14:59;;;;;;;2.22;1.17;;;14.70;48.30;;;13.05;32.96;99808.13;10402047;28;96422;-87
2023/04/26 11:20:09;;;;;;;1.98;0.88;;;14.40;49.40;;;12.83;34.72;99809.16;10401972;28;96627;-89
2023/04/26 11:25:13;;;;;;;4.60;1.20;;;14.20;50.80;;;12.78;34.98;99806.25;10397613;28;96539;-82
2023/04/26 11:30:18;;;;;;;2.78;1.30;;;14.10;51.00;;;12.76;35.51;99813.63;10366107;28;96902;-85
2023/04/26 11:35:23;;;;;;;5.22;1.30;;;14.10;51.60;;;12.83;35.71;99815.34;10401470;28;96638;-86
2023/04/26 11:40:29;;;;;;;2.13;1.10;;;14.20;52.10;;;12.91;34.64;99817.03;10385065;28;96535;-88
2023/04/26 11:45:35;;;;;;;2.05;0.80;;;14.30;51.40;;;12.97;34.60;99818.94;10400389;28;96569;-85
2023/04/26 11:50:39;;;;;;;4.35;1.05;;;14.30;50.70;;;13.05;33.61;99816.13;10399465;28;97099;-86
2023/04/26 11:55:43;;;;;;;2.30;1.20;;;14.40;50.00;;;12.94;34.11;99811.31;10383911;28;96594;-87
2023/04/26 12:00:58;;;;;;;3.13;1.10;;;14.30;50.30;;;13.84;33.10;99812.34;10367503;28;96621;-85
2023/04/26 12:06:01;;;;;;;3.70;1.00;;;15.20;50.00;;;14.15;32.72;99806.50;10383581;28;96595;-89
2023/04/26 12:11:04;;;;;;;2.20;1.13;;;15.60;49.10;;;13.78;31.62;99823.81;10358215;28;97083;-87
2023/04/26 12:16:08;;;;;;;3.67;0.98;;;15.30;47.80;;;13.45;32.64;99813.78;10414786;28;96427;-87
2023/04/26 12:21:27;;;;;;;2.83;0.80;;;14.90;48.50;;;14.50;32.15;99793.88;10400528;28;96475;-88
2023/04/26 12:26:43;;;;;;;2.42;0.82;;;16.10;48.60;;;14.62;30.50;99794.91;10398531;28;96487;-89
2023/04/26 12:31:46;;;;;;;2.05;0.82;;;16.20;46.70;;;14.04;30.69;99810.59;10383096;28;96503;-87
2023/04/26 12:36:50;;;;;;;1.83;0.93;;;15.60;46.40;;;13.81;29.78;99812.75;10399404;28;96531;-84
2023/04/26 12:41:54;;;;;;;1.40;0.60;;;15.30;45.10;;;13.86;30.81;99821.81;10398047;28;96708;-86
2023/04/26 12:46:57;;;;;;;1.02;0.60;;;15.30;46.60;;;14.54;30.61;99818.38;10398354;28;96588;-86
2023/04/26 12:52:00;;;;;;;1.65;0.90;;;15.90;46.40;;;14.52;31.00;99823.94;10399574;28;96747;-87
2023/04/26 12:57:04;;;;;;;1.95;0.80;;;16.00;46.80;;;14.02;31.38;99835.84;10399320;28;96523;-85
2023/04/26 13:02:08;;;;;;;3.05;1.00;;;15.50;46.80;;;13.57;31.08;99849.59;10415155;28;96589;-86
2023/04/26 13:07:12;;;;;;;4.10;1.10;;;15.00;46.50;;;13.21;32.09;99854.25;10384713;28;96700;-85
2023/04/26 13:12:15;;;;;;;5.65;1.02;;;14.60;47.10;;;13.08;32.93;99838.94;10382565;28;96582;-88
2023/04/26 13:17:19;;;;;;;2.42;0.80;;;14.50;48.30;;;13.22;33.62;99839.88;10399547;28;96438;-88
2023/04/26 13:22:22;;;;;;;3.38;1.38;;;14.60;48.80;;;13.87;33.22;99834.16;10401109;28;98247;-88
2023/04/26 13:27:25;;;;;;;5.78;1.42;;;15.40;48.90;;;15.03;32.22;99834.06;10419713;28;96765;-85
2023/04/26 13:32:31;;;;;;;4.35;1.27;;;16.90;48.20;;;14.92;30.75;99848.03;10397668;28;96485;-86
2023/04/26 13:37:35;;;;;;;3.40;1.25;;;16.80;46.10;;;14.08;31.46;99851.06;10347138;28;97116;-85
2023/04/26 13:42:39;;;;;;;2.92;1.00;;;15.90;46.20;;;13.46;33.25;99860.81;10323027;28;96413;-87
2023/04/26 13:47:42;;;;;;;3.15;1.30;;;15.10;47.70;;;13.06;32.97;99862.28;10338626;28;96816;-89
2023/04/26 13:52:45;;;;;;;4.45;1.17;;;14.60;48.00;;;12.89;34.45;99872.38;10322258;28;96426;-87
2023/04/26 13:57:48;;;;;;;3.00;1.33;;;14.30;49.20;;;12.78;34.73;99870.25;10322682;28;98365;-87
2023/04/26 14:02:51;;;;;;;10.63;7.82;;;14.20;49.60;;;12.59;34.86;99877.00;10312134;28;97379;-85
2023/04/26 14:07:55;;;;;;;4.33;1.73;;;14.00;49.90;;;12.30;34.85;99877.94;10318754;28;97242;-88
2023/04/26 14:12:58;;;;;;;53.27;35.03;;;13.70;49.70;;;12.18;35.26;99879.41;10338629;28;96551;-87
2023/04/26 14:18:01;;;;;;;6.13;3.47;;;13.50;50.00;;;12.27;35.51;99881.78;10338175;28;96518;-88
2023/04/26 14:23:04;;;;;;;2.47;1.30;;;13.60;50.40;;;12.40;33.46;99877.63;10349805;28;96783;-89
2023/04/26 14:28:07;;;;;;;2.73;2.00;;;13.80;48.90;;;12.41;34.30;99882.75;10342829;28;96745;-88
2023/04/26 14:33:10;;;;;;;2.85;0.90;;;13.80;49.40;;;12.70;33.77;99875.69;10317300;28;97046;-88
2023/04/26 14:38:13;;;;;;;1.95;1.00;;;14.10;49.20;;;12.77;33.25;99893.41;10382635;28;96675;-88
2023/04/26 14:43:17;;;;;;;4.22;1.13;;;14.30;48.20;;;12.38;34.09;99890.31;10383423;28;96389;-85
2023/04/26 14:48:20;;;;;;;1.55;1.02;;;13.90;48.90;;;12.05;34.61;99896.88;10355652;28;96624;-88
2023/04/26 14:53:23;;;;;;;2.23;0.87;;;13.60;49.40;;;11.84;35.61;99909.28;10351631;28;96662;-85
2023/04/26 14:58:26;;;;;;;2.60;1.00;;;13.30;50.20;;;11.68;35.89;99905.72;10297551;28;96467;-87
2023/04/26 15:03:31;;;;;;;3.57;1.13;;;13.10;50.60;;;11.61;36.26;99909.31;10304641;28;96766;-87
2023/04/26 15:08:34;;;;;;;2.03;1.00;;;13.00;51.10;;;11.47;36.18;99913.59;10339967;28;96527;-86
2023/04/26 15:13:37;;;;;;;2.40;0.77;;;12.90;51.10;;;11.36;36.17;99922.00;10335567;28;96454;-85
2023/04/26 15:18:40;;;;;;;5.57;0.80;;;12.70;50.90;;;11.22;36.33;99926.28;10337458;28;97050;-88
2023/04/26 15:23:43;;;;;;;2.27;0.90;;;12.60;51.00;;;11.19;36.89;99922.13;10373889;28;96629;-87
2023/04/26 15:28:46;;;;;;;2.73;1.30;;;12.50;51.20;;;11.36;36.53;99911.38;10354142;28;96652;-87
2023/04/26 15:33:49;;;;;;;2.40;0.90;;;12.70;51.40;;;11.49;36.71;99909.75;10373312;28;96572;-87
2023/04/26 15:38:52;;;;;;;2.40;0.83;;;12.80;51.50;;;12.07;36.70;99899.34;10374536;28;96456;-90
2023/04/26 15:43:55;;;;;;;1.80;0.95;;;13.40;51.70;;;13.08;34.77;99887.78;10360258;28;96421;-85
2023/04/26 15:48:58;;;;;;;2.85;1.38;;;14.60;51.20;;;14.10;33.04;99903.31;10375495;28;96503;-87
2023/04/26 15:54:01;;;;;;;1.42;0.90;;;15.80;49.30;;;14.85;30.25;99896.19;10354130;28;96613;-89
2023/04/26 15:59:04;;;;;;;3.67;1.00;;;16.60;47.10;;;15.18;29.83;99896.25;10322070;28;97911;-86
2023/04/26 16:04:07;;;;;;;3.45;0.80;;;17.00;45.50;;;15.22;29.70;99902.81;10368618;28;96780;-89
2023/04/26 16:09:13;;;;;;;4.05;0.93;;;17.00;45.30;;;14.82;29.41;99907.31;10357860;28;96630;-87
2023/04/26 16:14:27;;;;;;;1.38;0.75;;;16.60;44.80;;;13.93;30.97;99924.19;10377693;28;96729;-89
2023/04/26 16:19:30;;;;;;;2.20;0.80;;;15.70;45.50;;;13.06;32.54;99940.47;10357967;28;97568;-87
2023/04/26 16:24:34;;;;;;;2.45;0.95;;;14.70;46.70;;;12.40;33.19;99947.72;10357280;28;96438;-91
2023/04/26 16:29:37;;;;;;;3.53;0.93;;;13.90;47.50;;;12.37;33.68;99949.94;10373610;28;96722;-89
2023/04/26 16:34:41;;;;;;;3.10;1.10;;;13.80;48.30;;;12.39;33.44;99940.75;10381445;28;96439;-89
2023/04/26 16:39:44;;;;;;;2.43;1.10;;;13.80;47.80;;;12.46;34.21;99946.97;10400432;28;97935;-86
2023/04/26 16:44:47;;;;;;;2.00;0.90;;;13.90;48.50;;;12.36;34.11;99945.63;10383304;28;96760;-84
2023/04/26 16:49:51;;;;;;;2.43;1.00;;;13.80;48.40;;;12.01;34.82;99950.69;10416920;28;96405;-87
2023/04/26 16:54:54;;;;;;;2.23;1.10;;;13.50;48.90;;;11.62;35.42;99961.53;10398215;28;96481;-85
2023/04/26 16:59:57;;;;;;;4.30;1.30;;;13.10;49.60;;;11.39;36.39;99970.34;10394416;28;96606;-87
2023/04/26 17:05:00;;;;;;;3.70;1.57;;;12.80;50.30;;;11.24;36.62;99969.50;10376925;28;97507;-89
2023/04/26 17:10:04;;;;;;;1.63;0.90;;;12.70;50.70;;;11.06;36.43;99968.97;10409205;28;96881;-85
2023/04/26 17:15:08;;;;;;;3.37;1.10;;;12.50;50.60;;;11.02;36.79;99980.94;10376639;28;98837;-87
2023/04/26 17:20:12;;;;;;;3.00;1.20;;;12.40;51.00;;;10.91;37.23;99979.50;10414138;28;98244;-90
2023/04/26 17:25:15;;;;;;;4.03;1.53;;;12.30;51.10;;;10.83;37.01;99996.34;10375830;28;97871;-86
2023/04/26 17:30:22;;;;;;;5.33;1.83;;;12.20;51.10;;;10.74;36.84;99992.06;10366562;28;96604;-83
2023/04/26 17:35:25;;;;;;;4.90;1.10;;;12.10;51.10;;;10.63;36.60;99995.13;10407430;27;98415;-86
2023/04/26 17:40:28;;;;;;;6.13;1.60;;;12.00;51.00;;;10.53;36.76;100002.47;10374621;28;96603;-85
2023/04/26 17:45:31;;;;;;;3.63;1.40;;;11.90;50.90;;;10.41;37.01;100013.44;10412412;28;97481;-85
2023/04/26 17:50:34;;;;;;;3.80;1.17;;;11.80;51.00;;;10.30;36.36;100024.44;10398954;28;97549;-85
2023/04/26 17:55:37;;;;;;;4.13;1.33;;;11.70;50.70;;;10.14;37.16;100024.47;10377861;27;97286;-87
2023/04/26 18:00:40;;;;;;;3.37;1.27;;;11.60;51.20;;;10.01;37.31;100029.44;10376162;28;96666;-87
2023/04/26 18:05:43;;;;;;;3.07;1.37;;;11.40;51.30;;;9.86;37.44;100038.09;10406019;27;96668;-88
2023/04/26 18:10:46;;;;;;;2.30;0.90;;;11.20;51.50;;;9.72;37.70;100038.78;10410435;28;96652;-88
2023/04/26 18:15:50;;;;;;;4.63;1.60;;;11.10;51.70;;;9.56;37.60;100047.56;10383660;28;96906;-82
2023/04/26 18:20:53;;;;;;;4.53;2.67;;;11.00;51.60;;;9.40;37.87;100039.56;10379558;27;96792;-83
2023/04/26 18:25:56;;;;;;;4.50;1.90;;;10.90;51.80;;;9.27;38.09;100053.31;10383269;28;96556;-83
2023/04/26 18:31:00;;;;;;;8.10;5.23;;;10.70;52.00;;;9.10;38.42;100057.75;10401680;28;97150;-84
2023/04/26 18:36:04;;;;;;;7.00;3.70;;;10.60;52.30;;;8.96;38.87;100065.50;10384023;28;96550;-84
2023/04/26 18:41:08;;;;;;;7.87;4.00;;;10.50;52.80;;;8.77;40.01;100077.19;10370605;28;96932;-83
2023/04/26 18:46:11;;;;;;;7.33;3.60;;;10.30;53.40;;;8.55;40.65;100083.88;10384770;28;96859;-83
2023/04/26 18:51:16;;;;;;;5.97;3.20;;;10.10;54.10;;;8.39;41.07;100095.19;10401965;27;96787;-83
2023/04/26 18:56:19;;;;;;;8.37;2.80;;;9.90;54.50;;;8.22;41.53;100093.41;10398369;28;97209;-83
2023/04/26 19:01:23;;;;;;;8.43;3.20;;;9.70;54.80;;;8.09;41.76;100101.72;10401529;28;96599;-83
2023/04/26 19:06:27;;;;;;;8.67;3.17;;;9.60;55.10;;;7.96;42.37;100103.94;10400774;28;96442;-83
2023/04/26 19:11:30;;;;;;;7.13;2.87;;;9.50;55.80;;;7.81;42.74;100098.38;10385373;28;96756;-83
2023/04/26 19:16:33;;;;;;;4.70;2.13;;;9.30;56.10;;;7.75;42.89;100110.41;10377721;28;97604;-83
2023/04/26 19:21:37;;;;;;;3.33;1.73;;;9.20;56.40;;;7.71;43.13;100092.34;10391450;27;97788;-87
2023/04/26 19:26:41;;;;;;;4.00;1.30;;;9.20;56.70;;;7.72;42.86;100100.09;10398270;28;98951;-86
2023/04/26 19:31:44;;;;;;;5.13;2.27;;;9.10;56.50;;;7.74;42.71;100111.38;10377835;27;96729;-87
2023/04/26 19:36:48;;;;;;;8.60;3.83;;;9.20;56.50;;;7.70;43.67;100115.31;10398474;28;97648;-87
2023/04/26 19:41:51;;;;;;;9.87;4.10;;;9.20;57.00;;;7.59;44.34;100110.25;10384220;28;96884;-86
2023/04/26 19:46:54;;;;;;;10.83;5.03;;;9.10;57.50;;;7.53;44.26;100120.59;10379537;28;97457;-86
2023/04/26 19:51:57;;;;;;;15.87;5.13;;;9.00;57.70;;;7.46;44.39;100126.47;10400375;28;96484;-86
2023/04/26 19:57:02;;;;;;;9.67;3.83;;;8.90;57.70;;;7.40;44.38;100131.53;10399571;28;96768;-86
2023/04/26 20:02:05;;;;;;;5.47;2.40;;;8.90;57.90;;;7.34;44.76;100130.31;10390612;28;96809;-86
2023/04/26 20:07:08;;;;;;;5.63;2.20;;;8.80;58.10;;;7.26;45.09;100130.25;10407110;28;97164;-87
2023/04/26 20:12:11;;;;;;;7.60;2.73;;;8.70;58.40;;;7.16;45.51;100142.66;10382544;28;96685;-86
2023/04/26 20:17:15;;;;;;;6.70;2.80;;;8.70;58.70;;;7.09;45.95;100142.44;10399677;28;96920;-86
2023/04/26 20:22:18;;;;;;;3.20;1.50;;;8.60;58.80;;;7.06;45.81;100140.06;10382482;28;96572;-86
2023/04/26 20:27:21;;;;;;;2.87;1.30;;;8.60;58.90;;;7.10;45.94;100140.63;10367616;28;96772;-86
2023/04/26 20:32:24;;;;;;;3.40;1.17;;;8.60;58.90;;;7.08;45.88;100138.13;10417308;27;98289;-86
2023/04/26 20:37:27;;;;;;;3.83;1.50;;;8.60;59.00;;;7.07;46.11;100141.72;10387436;28;98143;-86
2023/04/26 20:42:30;;;;;;;2.60;1.40;;;8.60;59.40;;;7.08;46.41;100148.69;10379901;28;96597;-86
2023/04/26 20:47:33;;;;;;;5.53;1.50;;;8.60;59.10;;;7.05;46.54;100143.69;10408117;27;97466;-86
2023/04/26 20:52:38;;;;;;;2.07;1.10;;;8.60;59.20;;;6.99;46.76;100154.84;10398371;28;96705;-88
2023/04/26 20:57:41;;;;;;;6.40;3.23;;;8.50;59.20;;;6.87;47.73;100156.84;10412325;27;96637;-88
2023/04/26 21:02:44;;;;;;;6.23;3.70;;;8.50;60.10;;;6.70;48.19;100162.88;10399718;27;96822;-89
2023/04/26 21:07:47;;;;;;;7.73;3.60;;;8.30;60.60;;;6.52;49.10;100162.78;10402088;28;96642;-89
2023/04/26 21:12:50;;;;;;;7.20;3.10;;;8.20;60.90;;;6.29;49.47;100172.81;10421293;27;97279;-87
2023/04/26 21:17:53;;;;;;;3.97;2.07;;;8.00;61.80;;;6.08;50.49;100180.91;10398075;28;96527;-85